createdAt,value
2023-04-17T00:01:29.521Z,1.50
2023-04-17T00:04:01.488Z,1.50
2023-04-17T00:06:33.805Z,1.17
2023-04-17T00:09:06.090Z,1.60
2023-04-17T00:11:38.207Z,1.70
2023-04-17T00:14:09.958Z,0.90
2023-04-17T00:16:41.757Z,1.37
2023-04-17T00:19:13.691Z,1.30
2023-04-17T00:21:45.767Z,8.67
2023-04-17T00:24:17.458Z,6.77
2023-04-17T00:26:49.274Z,4.67
2023-04-17T00:29:20.997Z,2.70
2023-04-17T00:31:53.932Z,2.60
2023-04-17T00:34:25.764Z,6.47
2023-04-17T00:36:59.124Z,5.03
2023-04-17T00:39:31.228Z,2.67
2023-04-17T00:42:03.133Z,1.30
2023-04-17T00:44:34.865Z,1.60
2023-04-17T00:47:06.888Z,1.57
2023-04-17T00:49:38.935Z,1.70
2023-04-17T00:52:10.957Z,1.57
2023-04-17T00:54:43.365Z,1.40
2023-04-17T00:57:15.628Z,1.60
2023-04-17T00:59:48.337Z,1.20
2023-04-17T01:02:20.337Z,2.17
2023-04-17T01:04:52.089Z,1.60
2023-04-17T01:07:24.209Z,1.17
2023-04-17T01:09:55.972Z,1.40
2023-04-17T01:12:27.875Z,1.43
2023-04-17T01:14:59.965Z,1.50
2023-04-17T01:17:33.613Z,1.23
2023-04-17T01:20:14.688Z,1.37
2023-04-17T01:22:49.497Z,1.50
2023-04-17T01:25:21.461Z,1.63
2023-04-17T01:27:53.826Z,1.23
2023-04-17T01:30:26.303Z,1.20
2023-04-17T01:33:06.489Z,1.07
2023-04-17T01:35:38.348Z,1.03
2023-04-17T01:38:10.233Z,1.30
2023-04-17T01:40:41.938Z,1.57
2023-04-17T01:43:14.166Z,1.20
2023-04-17T01:45:45.887Z,1.40
2023-04-17T01:48:17.628Z,1.53
2023-04-17T01:50:49.371Z,1.20
2023-04-17T01:53:21.760Z,1.37
2023-04-17T01:55:53.500Z,1.57
2023-04-17T01:58:25.315Z,1.40
2023-04-17T02:00:57.405Z,1.13
2023-04-17T02:03:29.315Z,1.60
2023-04-17T02:06:01.251Z,1.40
2023-04-17T02:08:33.673Z,1.03
2023-04-17T02:11:06.445Z,1.43
2023-04-17T02:13:38.212Z,1.20
2023-04-17T02:16:12.357Z,1.30
2023-04-17T02:18:46.357Z,1.23
2023-04-17T02:21:18.302Z,1.10
2023-04-17T02:23:50.114Z,1.00
2023-04-17T02:26:21.830Z,1.03
2023-04-17T02:28:53.597Z,1.93
2023-04-17T02:31:25.703Z,1.53
2023-04-17T02:33:57.458Z,1.77
2023-04-17T02:36:29.322Z,1.17
2023-04-17T02:39:01.355Z,1.50
2023-04-17T02:41:33.417Z,1.40
2023-04-17T02:44:09.361Z,1.23
2023-04-17T02:46:41.484Z,0.70
2023-04-17T02:49:14.484Z,1.10
2023-04-17T02:51:46.260Z,1.33
2023-04-17T02:54:18.141Z,1.83
2023-04-17T02:56:50.945Z,1.50
2023-04-17T02:59:22.667Z,1.60
2023-04-17T03:01:54.505Z,1.30
2023-04-17T03:04:28.027Z,1.60
2023-04-17T03:07:00.104Z,1.87
2023-04-17T03:09:33.630Z,1.50
2023-04-17T03:12:05.868Z,1.70
2023-04-17T03:14:37.682Z,1.60
2023-04-17T03:17:10.532Z,2.00
2023-04-17T03:19:42.436Z,2.10
2023-04-17T03:22:14.142Z,1.53
2023-04-17T03:24:46.069Z,2.20
2023-04-17T03:27:24.224Z,2.23
2023-04-17T03:29:57.724Z,1.70
2023-04-17T03:32:31.104Z,1.80
2023-04-17T03:35:02.911Z,1.60
2023-04-17T03:37:34.673Z,1.50
2023-04-17T03:40:07.844Z,1.57
2023-04-17T03:42:39.675Z,1.40
2023-04-17T03:45:11.643Z,1.50
2023-04-17T03:47:43.750Z,1.43
2023-04-17T03:50:15.845Z,1.90
2023-04-17T03:52:53.813Z,1.67
2023-04-17T03:55:26.476Z,2.10
2023-04-17T03:57:58.585Z,1.90
2023-04-17T04:00:34.069Z,2.20
2023-04-17T04:03:12.973Z,1.90
2023-04-17T04:05:46.801Z,2.07
2023-04-17T04:08:18.513Z,1.30
2023-04-17T04:10:54.400Z,1.70
2023-04-17T04:13:33.861Z,1.37
2023-04-17T04:16:07.442Z,1.83
2023-04-17T04:18:43.012Z,1.87
2023-04-17T04:21:14.819Z,2.00
2023-04-17T04:23:49.729Z,1.73
2023-04-17T04:26:24.452Z,2.13
2023-04-17T04:29:00.541Z,2.23
2023-04-17T04:31:51.588Z,1.53
2023-04-17T04:34:29.916Z,2.03
2023-04-17T04:37:02.225Z,2.40
2023-04-17T04:40:01.958Z,2.07
2023-04-17T04:42:34.248Z,2.87
2023-04-17T04:45:19.281Z,1.93
2023-04-17T04:47:51.304Z,2.50
2023-04-17T04:50:23.275Z,2.63
2023-04-17T04:52:55.146Z,2.10
2023-04-17T04:55:41.367Z,3.20
2023-04-17T04:58:14.317Z,2.70
2023-04-17T05:00:46.917Z,2.73
2023-04-17T05:03:25.496Z,3.03
2023-04-17T05:05:58.770Z,2.57
2023-04-17T05:08:35.867Z,2.93
2023-04-17T05:11:15.548Z,2.80
2023-04-17T05:13:47.924Z,2.93
2023-04-17T05:16:28.244Z,2.90
2023-04-17T05:19:00.830Z,3.20
2023-04-17T05:21:57.793Z,3.73
2023-04-17T05:24:29.736Z,3.67
2023-04-17T05:27:02.189Z,3.40
2023-04-17T05:29:34.013Z,3.47
2023-04-17T05:32:06.051Z,3.27
2023-04-17T05:35:00.340Z,3.57
2023-04-17T05:37:33.440Z,3.40
2023-04-17T05:40:07.075Z,3.87
2023-04-17T05:42:39.305Z,3.07
2023-04-17T05:45:15.141Z,3.50
2023-04-17T05:47:46.917Z,3.73
2023-04-17T05:50:19.748Z,3.73
2023-04-17T05:52:51.605Z,3.80
2023-04-17T05:55:23.971Z,3.90
2023-04-17T05:58:00.272Z,3.60
2023-04-17T06:00:34.400Z,3.50
2023-04-17T06:03:10.728Z,4.77
2023-04-17T06:05:46.917Z,3.53
2023-04-17T06:08:18.877Z,4.27
2023-04-17T06:10:52.143Z,3.77
2023-04-17T06:13:24.561Z,3.90
2023-04-17T06:15:56.981Z,3.73
2023-04-17T06:18:28.709Z,3.80
2023-04-17T06:21:01.218Z,4.13
2023-04-17T06:23:33.627Z,3.63
2023-04-17T06:26:05.670Z,3.93
2023-04-17T06:28:37.393Z,3.60
2023-04-17T06:31:10.116Z,4.37
2023-04-17T06:33:41.851Z,4.53
2023-04-17T06:36:13.779Z,4.40
2023-04-17T06:38:51.262Z,3.70
2023-04-17T06:41:25.382Z,3.90
2023-04-17T06:43:58.709Z,4.20
2023-04-17T06:46:41.678Z,3.73
2023-04-17T06:49:13.634Z,3.33
2023-04-17T06:51:47.276Z,3.70
2023-04-17T06:54:19.083Z,3.70
2023-04-17T06:56:51.133Z,3.60
2023-04-17T06:59:22.929Z,3.63
2023-04-17T07:01:54.874Z,2.90
2023-04-17T07:04:27.284Z,3.30
2023-04-17T07:06:59.713Z,3.60
2023-04-17T07:09:31.433Z,3.10
2023-04-17T07:12:03.831Z,2.90
2023-04-17T07:14:35.606Z,2.63
2023-04-17T07:17:07.607Z,3.23
2023-04-17T07:19:39.341Z,3.27
2023-04-17T07:22:11.134Z,3.50
2023-04-17T07:24:42.867Z,3.30
2023-04-17T07:27:14.620Z,3.17
2023-04-17T07:29:52.756Z,3.13
2023-04-17T07:32:24.756Z,2.90
2023-04-17T07:34:56.653Z,2.50
2023-04-17T07:37:28.439Z,2.60
2023-04-17T07:40:00.190Z,3.00
2023-04-17T07:42:31.902Z,2.50
2023-04-17T07:45:04.897Z,2.93
2023-04-17T07:47:37.109Z,3.10
2023-04-17T07:50:09.165Z,2.90
2023-04-17T07:52:40.866Z,3.40
2023-04-17T07:55:12.738Z,2.90
2023-04-17T07:57:46.948Z,3.40
2023-04-17T08:00:19.428Z,3.03
2023-04-17T08:02:51.274Z,3.27
2023-04-17T08:05:23.909Z,3.17
2023-04-17T08:07:56.001Z,3.40
2023-04-17T08:10:28.500Z,3.60
2023-04-17T08:13:01.492Z,3.10
2023-04-17T08:15:33.967Z,2.93
2023-04-17T08:18:05.898Z,3.23
2023-04-17T08:20:37.903Z,3.60
2023-04-17T08:23:09.689Z,2.93
2023-04-17T08:25:41.432Z,3.00
2023-04-17T08:28:13.142Z,2.80
2023-04-17T08:30:44.897Z,2.87
2023-04-17T08:33:18.103Z,2.73
2023-04-17T08:35:49.875Z,3.23
2023-04-17T08:38:21.598Z,2.70
2023-04-17T08:40:57.757Z,2.83
2023-04-17T08:43:29.834Z,3.00
2023-04-17T08:46:02.872Z,2.80
2023-04-17T08:48:34.859Z,2.97
2023-04-17T08:51:06.730Z,3.13
2023-04-17T08:53:38.508Z,2.83
2023-04-17T08:56:10.260Z,2.73
2023-04-17T08:58:41.975Z,2.23
2023-04-17T09:01:19.828Z,2.20
2023-04-17T09:03:52.262Z,2.40
2023-04-17T09:06:24.256Z,2.37
2023-04-17T09:08:58.296Z,2.47
2023-04-17T09:11:30.535Z,1.93
2023-04-17T09:14:02.266Z,2.80
2023-04-17T09:16:35.150Z,2.93
2023-04-17T09:19:07.831Z,2.60
2023-04-17T09:21:39.578Z,2.30
2023-04-17T09:24:11.502Z,2.00
2023-04-17T09:26:43.201Z,2.50
2023-04-17T09:29:15.499Z,2.50
2023-04-17T09:31:48.315Z,2.60
2023-04-17T09:34:20.728Z,2.50
2023-04-17T09:36:54.368Z,2.40
2023-04-17T09:39:26.187Z,2.07
2023-04-17T09:42:04.101Z,1.90
2023-04-17T09:44:37.991Z,1.87
2023-04-17T09:47:11.364Z,1.43
2023-04-17T09:49:55.784Z,1.97
2023-04-17T09:52:28.640Z,1.53
2023-04-17T09:55:06.847Z,1.80
2023-04-17T09:57:39.241Z,1.63
2023-04-17T10:00:14.770Z,1.90
2023-04-17T10:02:49.611Z,1.43
2023-04-17T10:05:23.423Z,1.33
2023-04-17T10:07:56.200Z,1.47
2023-04-17T10:10:31.334Z,1.60
2023-04-17T10:13:06.958Z,1.70
2023-04-17T10:15:42.513Z,2.40
2023-04-17T10:18:23.067Z,2.33
2023-04-17T10:20:55.559Z,1.97
2023-04-17T10:23:31.148Z,2.47
2023-04-17T10:26:25.690Z,2.00
2023-04-17T10:28:57.953Z,1.90
2023-04-17T10:32:07.692Z,2.17
2023-04-17T10:34:42.474Z,2.20
2023-04-17T10:37:15.957Z,2.00
2023-04-17T10:39:54.922Z,1.87
2023-04-17T10:42:29.714Z,2.07
2023-04-17T10:45:04.849Z,2.20
2023-04-17T10:47:37.812Z,2.37
2023-04-17T10:50:10.084Z,1.90
2023-04-17T10:52:43.026Z,1.80
2023-04-17T10:55:23.078Z,2.40
2023-04-17T10:58:12.295Z,2.43
2023-04-17T11:00:51.876Z,1.80
2023-04-17T11:03:24.087Z,2.03
2023-04-17T11:05:56.052Z,1.80
2023-04-17T11:08:27.837Z,2.10
2023-04-17T11:10:59.630Z,2.00
2023-04-17T11:13:34.745Z,3.87
2023-04-17T11:16:07.437Z,2.10
2023-04-17T11:18:39.251Z,1.87
2023-04-17T11:21:14.260Z,1.70
2023-04-17T11:23:55.166Z,1.50
2023-04-17T11:26:27.092Z,1.17
2023-04-17T11:28:59.618Z,1.00
2023-04-17T11:31:31.520Z,1.10
2023-04-17T11:34:08.042Z,0.97
2023-04-17T11:36:39.940Z,1.20
2023-04-17T11:39:14.988Z,0.90
2023-04-17T11:41:47.105Z,1.50
2023-04-17T11:44:20.982Z,0.97
2023-04-17T11:46:58.563Z,1.83
2023-04-17T11:49:38.864Z,1.10
2023-04-17T11:52:10.990Z,0.83
2023-04-17T11:54:42.696Z,0.90
2023-04-17T11:57:14.942Z,1.00
2023-04-17T11:59:46.676Z,1.27
2023-04-17T12:02:31.902Z,0.90
2023-04-17T12:05:18.227Z,0.80
2023-04-17T12:08:04.320Z,1.07
2023-04-17T12:10:45.307Z,1.07
2023-04-17T12:13:17.033Z,0.80
2023-04-17T12:15:48.808Z,0.57
2023-04-17T12:18:20.664Z,0.50
2023-04-17T12:20:52.645Z,0.60
2023-04-17T12:23:24.394Z,0.50
2023-04-17T12:25:56.133Z,0.67
2023-04-17T12:28:27.874Z,0.60
2023-04-17T12:30:59.660Z,0.40
2023-04-17T12:33:32.263Z,0.50
2023-04-17T12:36:06.389Z,0.27
2023-04-17T12:38:38.199Z,0.60
2023-04-17T12:41:10.661Z,0.40
2023-04-17T12:43:42.390Z,0.60
2023-04-17T12:46:14.170Z,0.40
2023-04-17T12:48:46.362Z,0.30
2023-04-17T12:51:18.093Z,0.60
2023-04-17T12:53:52.872Z,0.30
2023-04-17T12:56:24.601Z,0.40
2023-04-17T12:58:56.317Z,0.47
2023-04-17T13:01:28.097Z,0.40
2023-04-17T13:04:00.063Z,0.60
2023-04-17T13:06:32.442Z,0.40
2023-04-17T13:09:04.758Z,0.30
2023-04-17T13:11:36.465Z,0.30
2023-04-17T13:14:09.027Z,0.30
2023-04-17T13:16:41.779Z,0.50
2023-04-17T13:19:13.710Z,0.30
2023-04-17T13:21:45.610Z,0.20
2023-04-17T13:24:17.617Z,0.43
2023-04-17T13:26:49.322Z,0.30
2023-04-17T13:29:21.132Z,0.50
2023-04-17T13:31:52.987Z,0.33
2023-04-17T13:34:24.817Z,0.50
2023-04-17T13:36:57.058Z,0.40
2023-04-17T13:39:28.818Z,0.10
2023-04-17T13:42:00.557Z,0.40
2023-04-17T13:44:32.508Z,0.47
2023-04-17T13:47:04.384Z,0.50
2023-04-17T13:49:36.134Z,0.40
2023-04-17T13:52:08.237Z,0.30
2023-04-17T13:54:41.101Z,0.20
2023-04-17T13:57:14.664Z,0.30
2023-04-17T13:59:46.409Z,0.43
2023-04-17T14:02:18.301Z,0.50
2023-04-17T14:04:50.414Z,0.40
2023-04-17T14:07:22.269Z,0.50
2023-04-17T14:09:54.002Z,0.53
2023-04-17T14:12:26.252Z,0.40
2023-04-17T14:14:58.380Z,0.47
2023-04-17T14:17:30.248Z,0.70
2023-04-17T14:20:02.036Z,0.50
2023-04-17T14:22:33.798Z,0.50
2023-04-17T14:25:05.950Z,0.80
2023-04-17T14:27:37.689Z,0.80
2023-04-17T14:30:09.684Z,0.50
2023-04-17T14:32:41.444Z,0.60
2023-04-17T14:35:13.389Z,0.57
2023-04-17T14:37:45.246Z,0.63
2023-04-17T14:40:17.024Z,0.33
2023-04-17T14:42:54.127Z,0.30
2023-04-17T14:45:26.589Z,0.43
2023-04-17T14:47:58.762Z,0.50
2023-04-17T14:50:30.607Z,0.40
2023-04-17T14:53:03.491Z,0.50
2023-04-17T14:55:36.823Z,0.70
2023-04-17T14:58:08.836Z,0.30
2023-04-17T15:00:40.910Z,0.50
2023-04-17T15:03:12.741Z,0.23
2023-04-17T15:05:46.182Z,0.40
2023-04-17T15:08:18.794Z,0.37
2023-04-17T15:10:51.737Z,0.50
2023-04-17T15:13:23.550Z,0.33
2023-04-17T15:15:55.725Z,0.20
2023-04-17T15:18:27.526Z,0.40
2023-04-17T15:20:59.278Z,0.30
2023-04-17T15:23:31.336Z,0.33
2023-04-17T15:26:03.184Z,0.30
2023-04-17T15:28:35.544Z,0.40
2023-04-17T15:31:07.912Z,0.40
2023-04-17T15:33:39.639Z,0.30
2023-04-17T15:36:11.376Z,0.60
2023-04-17T15:38:44.023Z,0.40
2023-04-17T15:41:15.741Z,0.57
2023-04-17T15:43:47.430Z,0.40
2023-04-17T15:46:19.309Z,0.33
2023-04-17T15:49:04.883Z,0.40
2023-04-17T15:51:41.573Z,0.40
2023-04-17T15:54:13.568Z,0.50
2023-04-17T15:56:45.257Z,0.20
2023-04-17T15:59:17.243Z,0.47
2023-04-17T16:01:49.140Z,0.40
2023-04-17T16:04:21.045Z,0.57
2023-04-17T16:06:53.433Z,0.50
2023-04-17T16:09:25.314Z,0.60
2023-04-17T16:11:57.845Z,0.50
2023-04-17T16:14:29.563Z,0.40
2023-04-17T16:17:01.362Z,0.53
2023-04-17T16:19:33.269Z,0.70
2023-04-17T16:22:05.014Z,0.30
2023-04-17T16:24:36.759Z,0.40
2023-04-17T16:27:08.530Z,0.47
2023-04-17T16:29:40.266Z,0.40
2023-04-17T16:32:14.129Z,0.90
2023-04-17T16:34:46.427Z,0.30
2023-04-17T16:37:18.175Z,0.87
2023-04-17T16:39:50.829Z,0.50
2023-04-17T16:42:22.648Z,0.67
2023-04-17T16:44:54.336Z,0.83
2023-04-17T16:47:28.294Z,0.60
2023-04-17T16:50:00.181Z,0.60
2023-04-17T16:52:31.872Z,0.50
2023-04-17T16:55:03.710Z,0.60
2023-04-17T16:57:40.511Z,0.60
2023-04-17T17:00:12.808Z,0.50
2023-04-17T17:02:44.684Z,0.63
2023-04-17T17:05:16.447Z,0.47
2023-04-17T17:07:48.588Z,0.57
2023-04-17T17:10:20.316Z,0.87
2023-04-17T17:12:52.080Z,0.97
2023-04-17T17:15:23.934Z,0.67
2023-04-17T17:17:55.802Z,0.60
2023-04-17T17:20:27.572Z,0.70
2023-04-17T17:22:59.330Z,0.90
2023-04-17T17:25:31.074Z,1.00
2023-04-17T17:28:02.803Z,1.00
2023-04-17T17:30:34.609Z,0.50
2023-04-17T17:33:06.377Z,0.70
2023-04-17T17:35:38.206Z,0.90
2023-04-17T17:38:11.410Z,0.80
2023-04-17T17:40:43.901Z,0.60
2023-04-17T17:43:15.707Z,0.63
2023-04-17T17:45:47.757Z,1.00
2023-04-17T17:48:20.517Z,0.80
2023-04-17T17:50:54.602Z,1.20
2023-04-17T17:53:27.219Z,0.90
2023-04-17T17:55:59.046Z,1.17
2023-04-17T17:58:30.743Z,1.20
2023-04-17T18:01:02.621Z,1.07
2023-04-17T18:03:35.460Z,1.27
2023-04-17T18:06:07.256Z,1.57
2023-04-17T18:08:39.186Z,1.20
2023-04-17T18:11:13.580Z,1.43
2023-04-17T18:13:45.281Z,0.90
2023-04-17T18:16:17.435Z,0.90
2023-04-17T18:18:49.215Z,1.00
2023-04-17T18:21:20.988Z,0.80
2023-04-17T18:23:52.989Z,0.90
2023-04-17T18:26:24.736Z,0.80
2023-04-17T18:28:56.463Z,0.80
2023-04-17T18:31:28.295Z,0.67
2023-04-17T18:34:02.480Z,0.60
2023-04-17T18:36:34.171Z,0.80
2023-04-17T18:39:05.865Z,0.80
2023-04-17T18:41:37.562Z,0.90
2023-04-17T18:44:09.282Z,0.70
2023-04-17T18:46:41.144Z,0.67
2023-04-17T18:49:12.853Z,1.07
2023-04-17T18:51:47.907Z,0.93
2023-04-17T18:54:19.792Z,1.17
2023-04-17T18:56:51.591Z,1.20
2023-04-17T18:59:25.962Z,1.17
2023-04-17T19:01:57.791Z,1.30
2023-04-17T19:04:30.447Z,1.40
2023-04-17T19:07:02.745Z,3.50
2023-04-17T19:09:34.465Z,22.23
2023-04-17T19:12:06.216Z,8.47
2023-04-17T19:14:37.905Z,1.33
2023-04-17T19:17:09.637Z,1.00
2023-04-17T19:19:41.374Z,1.40
2023-04-17T19:22:15.882Z,1.17
2023-04-17T19:24:50.050Z,1.30
2023-04-17T19:27:23.781Z,1.77
2023-04-17T19:29:56.916Z,1.60
2023-04-17T19:32:30.435Z,1.80
2023-04-17T19:35:03.488Z,1.63
2023-04-17T19:37:35.344Z,1.70
2023-04-17T19:40:21.314Z,1.63
2023-04-17T19:43:01.049Z,1.67
2023-04-17T19:45:34.388Z,2.30
2023-04-17T19:48:06.459Z,1.40
2023-04-17T19:50:38.190Z,1.33
2023-04-17T19:53:09.888Z,1.73
2023-04-17T19:55:42.342Z,1.83
2023-04-17T19:58:14.020Z,1.80
2023-04-17T20:00:45.927Z,2.00
2023-04-17T20:03:17.752Z,2.73
2023-04-17T20:05:50.032Z,2.20
2023-04-17T20:08:21.845Z,3.33
2023-04-17T20:10:53.744Z,3.40
2023-04-17T20:13:26.165Z,3.23
2023-04-17T20:15:57.890Z,2.60
2023-04-17T20:18:29.667Z,3.37
2023-04-17T20:21:01.516Z,3.30
2023-04-17T20:23:33.334Z,3.73
2023-04-17T20:26:05.111Z,3.97
2023-04-17T20:28:36.805Z,4.47
2023-04-17T20:31:08.581Z,4.70
2023-04-17T20:33:40.293Z,4.43
2023-04-17T20:36:12.481Z,4.70
2023-04-17T20:38:44.836Z,5.03
2023-04-17T20:41:16.559Z,5.53
2023-04-17T20:43:59.004Z,5.00
2023-04-17T20:46:30.829Z,5.73
2023-04-17T20:49:02.561Z,5.17
2023-04-17T20:51:34.268Z,5.07
2023-04-17T20:54:06.001Z,5.13
2023-04-17T20:56:37.770Z,5.37
2023-04-17T20:59:09.484Z,5.13
2023-04-17T21:01:41.304Z,5.87
2023-04-17T21:04:13.215Z,5.27
2023-04-17T21:06:45.101Z,5.20
2023-04-17T21:09:16.846Z,5.13
2023-04-17T21:11:49.556Z,5.17
2023-04-17T21:14:21.276Z,4.77
2023-04-17T21:16:54.865Z,5.47
2023-04-17T21:19:27.759Z,5.73
2023-04-17T21:21:59.479Z,5.33
2023-04-17T21:24:31.241Z,5.73
2023-04-17T21:27:03.542Z,5.43
2023-04-17T21:29:35.336Z,5.47
2023-04-17T21:32:07.129Z,5.93
2023-04-17T21:34:39.097Z,5.83
2023-04-17T21:37:10.845Z,6.23
2023-04-17T21:39:42.542Z,6.23
2023-04-17T21:42:14.445Z,6.57
2023-04-17T21:44:46.166Z,6.20
2023-04-17T21:47:19.470Z,6.20
2023-04-17T21:49:51.140Z,5.90
2023-04-17T21:52:22.847Z,6.67
2023-04-17T21:54:54.615Z,6.53
2023-04-17T21:57:26.349Z,6.20
2023-04-17T21:59:58.137Z,5.67
2023-04-17T22:02:29.964Z,5.50
2023-04-17T22:05:01.700Z,6.17
2023-04-17T22:07:40.710Z,5.53
2023-04-17T22:10:19.419Z,6.43
2023-04-17T22:12:51.221Z,5.33
2023-04-17T22:15:23.066Z,6.13
2023-04-17T22:17:54.829Z,6.13
2023-04-17T22:20:26.722Z,5.97
2023-04-17T22:22:58.583Z,5.63
2023-04-17T22:25:30.281Z,5.80
2023-04-17T22:28:01.988Z,6.03
2023-04-17T22:30:33.686Z,5.90
2023-04-17T22:33:05.407Z,6.43
2023-04-17T22:35:37.176Z,6.13
2023-04-17T22:38:08.869Z,6.30
2023-04-17T22:40:41.301Z,6.37
2023-04-17T22:43:13.008Z,6.50
2023-04-17T22:45:44.775Z,6.33
2023-04-17T22:48:17.711Z,6.50
2023-04-17T22:50:50.248Z,7.03
2023-04-17T22:53:22.990Z,6.20
2023-04-17T22:56:02.159Z,6.30
2023-04-17T22:58:34.241Z,6.20
2023-04-17T23:01:06.108Z,6.80
2023-04-17T23:03:37.861Z,6.47
2023-04-17T23:06:11.155Z,6.30
2023-04-17T23:08:42.820Z,6.27
2023-04-17T23:11:14.528Z,7.57
2023-04-17T23:13:46.195Z,6.53
2023-04-17T23:16:18.003Z,6.03
2023-04-17T23:18:49.792Z,6.77
2023-04-17T23:21:21.529Z,6.80
2023-04-17T23:23:53.303Z,6.60
2023-04-17T23:26:25.819Z,5.97
2023-04-17T23:28:57.729Z,6.30
2023-04-17T23:31:29.435Z,6.07
2023-04-17T23:34:01.189Z,6.23
2023-04-17T23:36:32.973Z,7.00
2023-04-17T23:39:05.686Z,5.83
2023-04-17T23:41:37.398Z,6.50
2023-04-17T23:44:09.716Z,6.57
2023-04-17T23:46:41.482Z,6.57
2023-04-17T23:49:13.298Z,6.70
2023-04-17T23:51:45.093Z,6.70
2023-04-17T23:54:17.333Z,5.67
2023-04-17T23:56:49.110Z,6.90
2023-04-17T23:59:20.891Z,6.77
